createdAt,value
2019-02-07T00:00:51.941Z,6.54
2019-02-07T00:01:51.923Z,6.60
2019-02-07T00:02:51.933Z,6.59
2019-02-07T00:03:51.904Z,6.62
2019-02-07T00:04:51.892Z,6.56
2019-02-07T00:05:51.889Z,6.56
2019-02-07T00:06:54.550Z,6.54
2019-02-07T00:07:51.990Z,6.56
2019-02-07T00:08:51.857Z,6.60
2019-02-07T00:09:51.840Z,6.56
2019-02-07T00:10:51.827Z,6.62
2019-02-07T00:11:51.820Z,6.63
2019-02-07T00:12:51.828Z,6.60
2019-02-07T00:13:51.793Z,6.60
2019-02-07T00:14:51.785Z,6.59
2019-02-07T00:15:51.774Z,6.54
2019-02-07T00:16:51.762Z,6.56
2019-02-07T00:17:51.774Z,6.51
2019-02-07T00:18:51.764Z,6.57
2019-02-07T00:19:51.734Z,6.48
2019-02-07T00:20:51.727Z,6.52
2019-02-07T00:21:51.706Z,6.51
2019-02-07T00:22:51.700Z,6.51
2019-02-07T00:23:51.705Z,6.44
2019-02-07T00:24:51.674Z,6.42
2019-02-07T00:25:51.671Z,6.42
2019-02-07T00:26:51.657Z,6.41
2019-02-07T00:27:51.661Z,6.39
2019-02-07T00:28:51.631Z,6.35
2019-02-07T00:29:51.626Z,6.38
2019-02-07T00:30:51.630Z,6.26
2019-02-07T00:31:51.603Z,6.26
2019-02-07T00:32:51.610Z,6.31
2019-02-07T00:33:51.576Z,6.33
2019-02-07T00:34:51.567Z,6.26
2019-02-07T00:35:51.562Z,6.28
2019-02-07T00:36:51.551Z,6.30
2019-02-07T00:37:51.550Z,6.14
2019-02-07T00:38:51.532Z,6.22
2019-02-07T00:39:51.513Z,6.22
2019-02-07T00:40:51.500Z,6.19
2019-02-07T00:41:51.519Z,6.16
2019-02-07T00:42:51.504Z,6.17
2019-02-07T00:43:51.469Z,6.22
2019-02-07T00:44:53.071Z,6.26
2019-02-07T00:45:51.455Z,6.19
2019-02-07T00:46:51.441Z,6.20
2019-02-07T00:47:51.447Z,6.16
2019-02-07T00:48:51.438Z,6.17
2019-02-07T00:49:51.401Z,6.26
2019-02-07T00:50:51.394Z,6.22
2019-02-07T00:51:51.382Z,6.20
2019-02-07T00:52:51.369Z,6.22
2019-02-07T00:53:51.383Z,6.14
2019-02-07T00:54:51.353Z,6.17
2019-02-07T00:55:51.341Z,6.19
2019-02-07T00:56:51.332Z,6.16
2019-02-07T00:57:51.315Z,6.08
2019-02-07T00:58:51.326Z,6.09
2019-02-07T00:59:51.298Z,6.11
2019-02-07T01:00:51.290Z,6.20
2019-02-07T01:01:51.273Z,6.09
2019-02-07T01:02:51.267Z,6.20
2019-02-07T01:03:51.268Z,6.19
2019-02-07T01:04:51.238Z,6.27
2019-02-07T01:05:51.246Z,6.27
2019-02-07T01:06:51.223Z,6.28
2019-02-07T01:07:51.211Z,6.27
2019-02-07T01:08:51.220Z,6.28
2019-02-07T01:09:51.185Z,6.28
2019-02-07T01:10:51.176Z,6.24
2019-02-07T01:11:51.166Z,6.35
2019-02-07T01:12:51.151Z,6.39
2019-02-07T01:13:51.166Z,6.35
2019-02-07T01:15:01.460Z,6.41
2019-02-07T01:15:52.120Z,6.38
2019-02-07T01:16:51.109Z,6.35
2019-02-07T01:17:51.104Z,6.28
2019-02-07T01:18:51.109Z,6.36
2019-02-07T01:19:51.083Z,6.35
2019-02-07T01:20:51.071Z,6.38
2019-02-07T01:21:51.054Z,6.38
2019-02-07T01:22:51.045Z,6.33
2019-02-07T01:23:51.053Z,6.38
2019-02-07T01:24:51.022Z,6.24
2019-02-07T01:25:51.016Z,6.22
2019-02-07T01:26:51.004Z,6.24
2019-02-07T01:27:50.993Z,6.14
2019-02-07T01:28:51.001Z,6.11
2019-02-07T01:29:50.967Z,6.17
2019-02-07T01:30:50.959Z,6.14
2019-02-07T01:31:50.951Z,6.14
2019-02-07T01:32:50.942Z,6.09
2019-02-07T01:33:50.954Z,6.16
2019-02-07T01:34:50.914Z,6.02
2019-02-07T01:35:50.903Z,5.99
2019-02-07T01:36:50.892Z,5.98
2019-02-07T01:37:50.886Z,5.90
2019-02-07T01:38:50.876Z,5.80
2019-02-07T01:39:50.881Z,5.80
2019-02-07T01:40:50.853Z,5.75
2019-02-07T01:41:50.836Z,5.68
2019-02-07T01:42:50.827Z,5.62
2019-02-07T01:43:50.825Z,5.66
2019-02-07T01:44:50.821Z,5.61
2019-02-07T01:45:50.799Z,5.65
2019-02-07T01:46:50.786Z,5.64
2019-02-07T01:47:50.833Z,5.59
2019-02-07T01:48:50.760Z,5.62
2019-02-07T01:49:50.790Z,5.65
2019-02-07T01:50:50.743Z,5.61
2019-02-07T01:51:50.732Z,5.62
2019-02-07T01:52:50.723Z,5.56
2019-02-07T01:53:50.711Z,5.41
2019-02-07T01:54:50.718Z,5.39
2019-02-07T01:55:50.687Z,5.36
2019-02-07T01:56:50.675Z,5.17
2019-02-07T01:57:50.672Z,5.10
2019-02-07T01:58:50.657Z,5.07
2019-02-07T01:59:50.664Z,5.02
2019-02-07T02:00:50.639Z,4.92
2019-02-07T02:01:50.625Z,4.99
2019-02-07T02:02:50.615Z,4.94
2019-02-07T02:03:50.604Z,4.87
2019-02-07T02:04:50.617Z,4.86
2019-02-07T02:05:50.578Z,4.86
2019-02-07T02:06:50.569Z,4.77
2019-02-07T02:07:50.558Z,4.80
2019-02-07T02:08:50.546Z,4.63
2019-02-07T02:09:50.558Z,4.67
2019-02-07T02:10:50.547Z,4.63
2019-02-07T02:11:50.517Z,4.58
2019-02-07T02:12:50.510Z,4.55
2019-02-07T02:13:50.491Z,4.53
2019-02-07T02:14:50.483Z,4.62
2019-02-07T02:15:50.489Z,4.50
2019-02-07T02:16:50.458Z,4.52
2019-02-07T02:17:50.455Z,4.48
2019-02-07T02:18:50.442Z,4.41
2019-02-07T02:19:50.446Z,4.38
2019-02-07T02:20:50.416Z,4.48
2019-02-07T02:21:50.412Z,4.42
2019-02-07T02:22:50.398Z,4.35
2019-02-07T02:23:50.386Z,4.32
2019-02-07T02:24:50.396Z,4.38
2019-02-07T02:25:50.379Z,4.23
2019-02-07T02:26:50.351Z,4.38
2019-02-07T02:27:50.341Z,4.34
2019-02-07T02:28:50.330Z,4.35
2019-02-07T02:29:50.324Z,4.34
2019-02-07T02:30:50.327Z,4.24
2019-02-07T02:31:50.299Z,4.30
2019-02-07T02:32:50.291Z,4.31
2019-02-07T02:33:50.280Z,4.22
2019-02-07T02:34:50.286Z,4.17
2019-02-07T02:35:50.274Z,4.24
2019-02-07T02:36:50.248Z,4.17
2019-02-07T02:37:50.232Z,4.12
2019-02-07T02:38:50.225Z,4.02
2019-02-07T02:39:50.232Z,4.12
2019-02-07T02:40:50.197Z,4.12
2019-02-07T02:41:50.192Z,4.19
2019-02-07T02:42:50.187Z,4.06
2019-02-07T02:43:50.186Z,4.16
2019-02-07T02:44:50.177Z,4.14
2019-02-07T02:45:50.142Z,4.13
2019-02-07T02:46:50.140Z,4.23
2019-02-07T02:47:50.132Z,4.17
2019-02-07T02:48:50.131Z,4.17
2019-02-07T02:49:50.101Z,4.13
2019-02-07T02:50:50.088Z,4.06
2019-02-07T02:51:50.102Z,4.08
2019-02-07T02:52:50.083Z,4.14
2019-02-07T02:53:50.058Z,4.10
2019-02-07T02:54:50.061Z,4.08
2019-02-07T02:55:50.033Z,4.13
2019-02-07T02:56:50.042Z,4.13
2019-02-07T02:57:50.018Z,4.13
2019-02-07T02:58:50.013Z,4.14
2019-02-07T02:59:50.021Z,4.10
2019-02-07T03:00:49.987Z,4.17
2019-02-07T03:01:49.971Z,4.13
2019-02-07T03:02:49.959Z,4.10
2019-02-07T03:03:49.946Z,4.16
2019-02-07T03:04:49.938Z,4.13
2019-02-07T03:05:49.947Z,4.12
2019-02-07T03:06:49.920Z,4.08
2019-02-07T03:07:49.912Z,4.26
2019-02-07T03:08:49.894Z,4.19
2019-02-07T03:09:49.887Z,4.26
2019-02-07T03:10:49.895Z,4.28
2019-02-07T03:11:49.865Z,4.23
2019-02-07T03:12:49.872Z,4.34
2019-02-07T03:13:49.839Z,4.26
2019-02-07T03:14:49.828Z,4.26
2019-02-07T03:15:50.206Z,4.26
2019-02-07T03:16:49.807Z,4.31
2019-02-07T03:17:49.822Z,4.28
2019-02-07T03:18:49.790Z,4.31
2019-02-07T03:19:49.783Z,4.30
2019-02-07T03:20:49.765Z,4.30
2019-02-07T03:21:49.751Z,4.20
2019-02-07T03:22:49.756Z,4.28
2019-02-07T03:23:49.735Z,4.23
2019-02-07T03:24:49.723Z,4.26
2019-02-07T03:25:49.726Z,4.23
2019-02-07T03:26:49.694Z,4.24
2019-02-07T03:27:49.684Z,4.35
2019-02-07T03:28:49.693Z,4.24
2019-02-07T03:29:49.666Z,4.32
2019-02-07T03:30:49.660Z,4.22
2019-02-07T03:31:49.655Z,4.32
2019-02-07T03:32:49.649Z,4.34
2019-02-07T03:33:49.620Z,4.22
2019-02-07T03:34:49.626Z,4.31
2019-02-07T03:35:49.614Z,4.28
2019-02-07T03:36:49.587Z,4.19
2019-02-07T03:37:49.578Z,4.30
2019-02-07T03:38:49.590Z,4.31
2019-02-07T03:39:49.557Z,4.35
2019-02-07T03:40:49.561Z,4.38
2019-02-07T03:41:49.534Z,4.24
2019-02-07T03:42:49.526Z,4.30
2019-02-07T03:43:49.514Z,4.30
2019-02-07T03:44:49.523Z,4.34
2019-02-07T03:46:02.093Z,4.28
2019-02-07T03:46:50.495Z,4.30
2019-02-07T03:47:49.465Z,4.30
2019-02-07T03:48:49.462Z,4.35
2019-02-07T03:49:49.453Z,4.35
2019-02-07T03:50:49.458Z,4.38
2019-02-07T03:51:49.427Z,4.40
2019-02-07T03:52:49.418Z,4.38
2019-02-07T03:53:49.400Z,4.34
2019-02-07T03:54:49.388Z,4.35
2019-02-07T03:55:49.401Z,4.32
2019-02-07T03:56:49.371Z,4.23
2019-02-07T03:57:49.359Z,4.32
2019-02-07T03:58:49.345Z,4.32
2019-02-07T03:59:49.333Z,4.41
2019-02-07T04:00:49.342Z,4.45
2019-02-07T04:01:49.322Z,4.52
2019-02-07T04:02:49.311Z,4.55
2019-02-07T04:03:49.304Z,4.55
2019-02-07T04:04:49.283Z,4.49
2019-02-07T04:05:49.291Z,4.50
2019-02-07T04:06:49.257Z,4.55
2019-02-07T04:07:49.265Z,4.52
2019-02-07T04:08:49.240Z,4.49
2019-02-07T04:09:49.231Z,4.56
2019-02-07T04:10:49.223Z,4.52
2019-02-07T04:11:49.205Z,4.66
2019-02-07T04:12:49.225Z,4.60
2019-02-07T04:13:49.188Z,4.62
2019-02-07T04:14:49.190Z,4.62
2019-02-07T04:15:49.167Z,4.58
2019-02-07T04:16:49.153Z,4.68
2019-02-07T04:17:49.161Z,4.62
2019-02-07T04:18:49.128Z,4.67
2019-02-07T04:19:49.121Z,4.75
2019-02-07T04:20:49.126Z,4.68
2019-02-07T04:21:49.100Z,4.71
2019-02-07T04:22:49.100Z,4.80
2019-02-07T04:23:49.103Z,4.77
2019-02-07T04:24:49.068Z,4.77
2019-02-07T04:25:49.056Z,4.74
2019-02-07T04:26:49.042Z,4.74
2019-02-07T04:27:49.056Z,4.89
2019-02-07T04:28:49.029Z,4.86
2019-02-07T04:29:49.013Z,4.86
2019-02-07T04:30:49.018Z,4.93
2019-02-07T04:31:48.998Z,4.93
2019-02-07T04:32:48.982Z,4.89
2019-02-07T04:33:48.971Z,4.90
2019-02-07T04:34:48.967Z,4.89
2019-02-07T04:35:48.972Z,4.93
2019-02-07T04:36:48.941Z,4.93
2019-02-07T04:37:48.952Z,4.93
2019-02-07T04:38:48.914Z,5.04
2019-02-07T04:39:48.907Z,5.07
2019-02-07T04:40:48.895Z,5.14
2019-02-07T04:41:48.887Z,5.11
2019-02-07T04:42:48.882Z,5.17
2019-02-07T04:43:48.891Z,5.21
2019-02-07T04:44:48.851Z,5.32
2019-02-07T04:45:48.843Z,5.39
2019-02-07T04:46:48.836Z,5.50
2019-02-07T04:47:48.826Z,5.46
2019-02-07T04:48:48.813Z,5.43
2019-02-07T04:49:48.827Z,5.47
2019-02-07T04:50:48.786Z,5.47
2019-02-07T04:51:48.791Z,5.38
2019-02-07T04:52:48.768Z,5.43
2019-02-07T04:53:48.765Z,5.50
2019-02-07T04:54:48.747Z,5.46
2019-02-07T04:55:48.765Z,5.50
2019-02-07T04:56:48.730Z,5.48
2019-02-07T04:57:48.710Z,5.50
2019-02-07T04:58:48.702Z,5.47
2019-02-07T04:59:48.696Z,5.50
2019-02-07T05:00:48.704Z,5.61
2019-02-07T05:01:48.685Z,5.56
2019-02-07T05:02:48.659Z,5.65
2019-02-07T05:03:48.648Z,5.71
2019-02-07T05:04:48.633Z,5.72
2019-02-07T05:05:48.631Z,5.73
2019-02-07T05:06:48.637Z,5.79
2019-02-07T05:07:48.610Z,5.64
2019-02-07T05:08:48.598Z,5.62
2019-02-07T05:09:48.585Z,5.65
2019-02-07T05:10:48.573Z,5.69
2019-02-07T05:11:48.580Z,5.68
2019-02-07T05:12:48.556Z,5.75
2019-02-07T05:13:48.550Z,5.79
2019-02-07T05:14:48.534Z,5.73
2019-02-07T05:15:48.518Z,5.75
2019-02-07T05:16:48.524Z,5.80
2019-02-07T05:17:48.524Z,5.75
2019-02-07T05:18:48.489Z,5.82
2019-02-07T05:19:48.481Z,5.82
2019-02-07T05:20:48.525Z,5.76
2019-02-07T05:21:48.477Z,5.71
2019-02-07T05:22:48.447Z,5.72
2019-02-07T05:23:48.432Z,5.68
2019-02-07T05:24:48.421Z,5.64
2019-02-07T05:25:48.418Z,5.65
2019-02-07T05:26:48.403Z,5.68
2019-02-07T05:27:48.409Z,5.69
2019-02-07T05:28:48.384Z,5.71
2019-02-07T05:29:48.375Z,5.64
2019-02-07T05:30:48.359Z,5.65
2019-02-07T05:31:48.368Z,5.65
2019-02-07T05:32:48.341Z,5.65
2019-02-07T05:33:48.324Z,5.73
2019-02-07T05:34:48.314Z,5.73
2019-02-07T05:35:48.303Z,5.71
2019-02-07T05:36:48.308Z,5.76
2019-02-07T05:37:49.740Z,5.73
2019-02-07T05:38:48.277Z,5.66
2019-02-07T05:39:48.287Z,5.62
2019-02-07T05:40:48.254Z,5.61
2019-02-07T05:41:48.244Z,5.62
2019-02-07T05:42:48.228Z,5.51
2019-02-07T05:43:48.389Z,5.62
2019-02-07T05:44:48.204Z,5.53
2019-02-07T05:45:48.219Z,5.48
2019-02-07T05:46:51.086Z,5.43
2019-02-07T05:47:48.175Z,5.44
2019-02-07T05:48:48.162Z,5.32
2019-02-07T05:49:48.158Z,5.30
2019-02-07T05:50:48.164Z,5.38
2019-02-07T05:51:48.137Z,5.30
2019-02-07T05:52:48.127Z,5.26
2019-02-07T05:53:48.112Z,5.33
2019-02-07T05:54:48.109Z,5.18
2019-02-07T05:55:48.106Z,5.28
2019-02-07T05:56:48.098Z,5.29
2019-02-07T05:57:48.073Z,5.29
2019-02-07T05:58:48.137Z,5.28
2019-02-07T05:59:48.050Z,5.30
2019-02-07T06:00:48.044Z,5.20
2019-02-07T06:01:48.025Z,5.20
2019-02-07T06:02:48.038Z,5.23
2019-02-07T06:03:48.005Z,5.28
2019-02-07T06:04:47.998Z,5.25
2019-02-07T06:05:47.980Z,5.29
2019-02-07T06:06:47.975Z,5.18
2019-02-07T06:07:47.959Z,5.28
2019-02-07T06:08:47.966Z,5.23
2019-02-07T06:09:49.053Z,5.32
2019-02-07T06:10:47.968Z,5.28
2019-02-07T06:11:47.919Z,5.36
2019-02-07T06:12:47.910Z,5.26
2019-02-07T06:13:47.911Z,5.39
2019-02-07T06:14:47.885Z,5.39
2019-02-07T06:15:47.876Z,5.41
2019-02-07T06:16:47.861Z,5.44
2019-02-07T06:17:47.879Z,5.30
2019-02-07T06:18:47.845Z,5.38
2019-02-07T06:19:47.830Z,5.33
2019-02-07T06:20:47.818Z,5.44
2019-02-07T06:21:48.314Z,5.44
2019-02-07T06:22:47.810Z,5.38
2019-02-07T06:23:47.810Z,5.44
2019-02-07T06:24:47.784Z,5.38
2019-02-07T06:25:47.766Z,5.38
2019-02-07T06:26:47.756Z,5.33
2019-02-07T06:27:47.753Z,5.30
2019-02-07T06:28:47.753Z,5.35
2019-02-07T06:29:47.732Z,5.35
2019-02-07T06:30:47.724Z,5.44
2019-02-07T06:31:47.710Z,5.38
2019-02-07T06:32:47.696Z,5.39
2019-02-07T06:33:47.705Z,5.44
2019-02-07T06:34:47.671Z,5.51
2019-02-07T06:35:47.663Z,5.47
2019-02-07T06:36:47.655Z,5.33
2019-02-07T06:37:47.645Z,5.39
2019-02-07T06:38:47.628Z,5.48
2019-02-07T06:39:47.636Z,5.48
2019-02-07T06:40:47.604Z,5.51
2019-02-07T06:41:47.606Z,5.47
2019-02-07T06:42:47.587Z,5.50
2019-02-07T06:43:47.601Z,5.50
2019-02-07T06:44:47.573Z,5.57
2019-02-07T06:45:47.552Z,5.57
2019-02-07T06:46:47.541Z,5.66
2019-02-07T06:47:47.532Z,5.61
2019-02-07T06:48:47.536Z,5.56
2019-02-07T06:49:47.515Z,5.54
2019-02-07T06:50:47.518Z,5.47
2019-02-07T06:51:47.488Z,5.56
2019-02-07T06:52:47.476Z,5.62
2019-02-07T06:53:47.472Z,5.57
2019-02-07T06:54:47.465Z,5.64
2019-02-07T06:55:47.469Z,5.62
2019-02-07T06:56:47.438Z,5.62
2019-02-07T06:57:47.421Z,5.62
2019-02-07T06:58:47.448Z,5.72
2019-02-07T06:59:47.403Z,5.73
2019-02-07T07:00:47.390Z,5.73
2019-02-07T07:01:47.393Z,5.72
2019-02-07T07:02:47.392Z,5.82
2019-02-07T07:03:47.380Z,5.75
2019-02-07T07:04:47.486Z,5.75
2019-02-07T07:05:47.366Z,5.75
2019-02-07T07:06:47.327Z,5.82
2019-02-07T07:07:47.318Z,5.83
2019-02-07T07:08:47.329Z,5.89
2019-02-07T07:09:47.293Z,5.90
2019-02-07T07:10:47.286Z,6.05
2019-02-07T07:11:47.274Z,5.97
2019-02-07T07:12:47.260Z,6.02
2019-02-07T07:13:47.279Z,6.07
2019-02-07T07:14:47.243Z,5.94
2019-02-07T07:15:47.237Z,6.01
2019-02-07T07:16:47.230Z,6.04
2019-02-07T07:17:47.225Z,5.99
2019-02-07T07:18:47.215Z,6.02
2019-02-07T07:19:47.192Z,6.09
2019-02-07T07:20:47.173Z,6.09
2019-02-07T07:21:47.173Z,6.05
2019-02-07T07:22:47.157Z,6.16
2019-02-07T07:23:47.174Z,6.09
2019-02-07T07:24:47.130Z,6.22
2019-02-07T07:25:47.128Z,6.14
2019-02-07T07:26:47.115Z,6.24
2019-02-07T07:27:47.103Z,6.19
2019-02-07T07:28:47.114Z,6.19
2019-02-07T07:29:47.079Z,6.22
2019-02-07T07:30:47.074Z,6.26
2019-02-07T07:31:47.058Z,6.20
2019-02-07T07:32:47.047Z,6.26
2019-02-07T07:33:47.067Z,6.20
2019-02-07T07:34:47.033Z,6.19
2019-02-07T07:35:47.016Z,6.19
2019-02-07T07:36:47.011Z,6.14
2019-02-07T07:37:46.993Z,6.22
2019-02-07T07:38:47.002Z,6.22
2019-02-07T07:39:46.973Z,6.17
2019-02-07T07:40:46.967Z,6.14
2019-02-07T07:41:46.947Z,6.17
2019-02-07T07:42:46.939Z,6.26
2019-02-07T07:43:46.934Z,6.17
2019-02-07T07:44:47.006Z,6.24
2019-02-07T07:45:46.909Z,6.28
2019-02-07T07:46:46.897Z,6.33
2019-02-07T07:47:46.885Z,6.39
2019-02-07T07:48:46.879Z,6.31
2019-02-07T07:49:46.860Z,6.39
2019-02-07T07:50:46.879Z,6.42
2019-02-07T07:51:46.842Z,6.56
2019-02-07T07:52:46.826Z,6.48
2019-02-07T07:53:46.827Z,6.54
2019-02-07T07:54:46.809Z,6.56
2019-02-07T07:55:46.796Z,6.54
2019-02-07T07:56:46.804Z,6.54
2019-02-07T07:57:46.791Z,6.60
2019-02-07T07:58:46.766Z,6.59
2019-02-07T07:59:46.755Z,6.63
2019-02-07T08:00:46.747Z,6.59
2019-02-07T08:01:46.747Z,6.57
2019-02-07T08:02:46.721Z,6.57
2019-02-07T08:03:46.710Z,6.56
2019-02-07T08:04:46.726Z,6.59
2019-02-07T08:05:46.711Z,6.60
2019-02-07T08:06:46.721Z,6.57
2019-02-07T08:07:46.679Z,6.57
2019-02-07T08:08:46.663Z,6.57
2019-02-07T08:09:46.643Z,6.59
2019-02-07T08:10:46.636Z,6.59
2019-02-07T08:11:46.648Z,6.57
2019-02-07T08:12:46.640Z,6.56
2019-02-07T08:13:46.600Z,6.62
2019-02-07T08:14:46.592Z,6.60
2019-02-07T08:15:46.581Z,6.60
2019-02-07T08:16:46.568Z,6.59
2019-02-07T08:17:47.709Z,6.63
2019-02-07T08:18:46.551Z,6.72
2019-02-07T08:19:46.539Z,6.75
2019-02-07T08:20:46.528Z,6.66
2019-02-07T08:21:46.513Z,6.72
2019-02-07T08:22:46.522Z,6.63
2019-02-07T08:23:46.515Z,6.59
2019-02-07T08:24:46.503Z,6.64
2019-02-07T08:25:46.482Z,6.57
2019-02-07T08:26:46.490Z,6.56
2019-02-07T08:27:46.453Z,6.54
2019-02-07T08:28:46.438Z,6.56
2019-02-07T08:29:46.450Z,6.57
2019-02-07T08:30:46.426Z,6.56
2019-02-07T08:31:46.409Z,6.62
2019-02-07T08:32:46.404Z,6.70
2019-02-07T08:33:46.383Z,6.75
2019-02-07T08:34:46.390Z,6.74
2019-02-07T08:35:46.363Z,6.70
2019-02-07T08:36:46.349Z,6.70
2019-02-07T08:37:46.349Z,6.72
2019-02-07T08:38:46.353Z,6.74
2019-02-07T08:39:46.346Z,6.69
2019-02-07T08:40:46.318Z,6.87
2019-02-07T08:41:46.297Z,6.79
2019-02-07T08:42:46.288Z,6.97
2019-02-07T08:43:46.284Z,6.88
2019-02-07T08:44:46.300Z,6.82
2019-02-07T08:45:46.269Z,6.82
2019-02-07T08:46:46.247Z,6.88
2019-02-07T08:47:46.262Z,6.95
2019-02-07T08:48:46.220Z,7.02
2019-02-07T08:49:46.234Z,7.03
2019-02-07T08:50:46.223Z,7.13
2019-02-07T08:51:46.192Z,7.17
2019-02-07T08:52:46.183Z,7.18
2019-02-07T08:53:46.165Z,7.24
2019-02-07T08:54:46.188Z,7.20
2019-02-07T08:55:46.147Z,7.24
2019-02-07T08:56:46.134Z,7.23
2019-02-07T08:57:46.133Z,7.23
2019-02-07T08:58:46.117Z,7.33
2019-02-07T08:59:46.103Z,7.33
2019-02-07T09:00:46.109Z,7.39
2019-02-07T09:01:46.088Z,7.35
2019-02-07T09:02:51.869Z,7.40
2019-02-07T09:03:47.062Z,7.38
2019-02-07T09:04:46.053Z,7.38
2019-02-07T09:05:46.058Z,7.32
2019-02-07T09:06:46.026Z,7.29
2019-02-07T09:07:46.020Z,7.28
2019-02-07T09:08:46.045Z,7.31
2019-02-07T09:09:46.018Z,7.28
2019-02-07T09:10:46.041Z,7.25
2019-02-07T09:11:45.983Z,7.21
2019-02-07T09:12:45.967Z,7.28
2019-02-07T09:13:45.952Z,7.20
2019-02-07T09:14:45.956Z,7.23
2019-02-07T09:15:45.934Z,7.25
2019-02-07T09:16:45.921Z,7.15
2019-02-07T09:17:45.907Z,7.14
2019-02-07T09:18:45.988Z,7.11
2019-02-07T09:19:45.904Z,7.06
2019-02-07T09:20:45.888Z,7.06
2019-02-07T09:21:45.873Z,7.15
2019-02-07T09:22:45.859Z,7.18
2019-02-07T09:23:45.848Z,7.17
2019-02-07T09:24:45.853Z,7.21
2019-02-07T09:25:45.822Z,7.35
2019-02-07T09:26:45.808Z,7.33
2019-02-07T09:27:45.797Z,7.25
2019-02-07T09:28:45.794Z,7.29
2019-02-07T09:29:45.802Z,7.32
2019-02-07T09:30:45.789Z,7.40
2019-02-07T09:31:45.755Z,7.47
2019-02-07T09:32:45.745Z,7.56
2019-02-07T09:33:45.736Z,7.53
2019-02-07T09:34:45.729Z,7.53
2019-02-07T09:35:45.742Z,7.58
2019-02-07T09:36:45.725Z,7.66
2019-02-07T09:37:45.691Z,7.69
2019-02-07T09:38:45.724Z,7.75
2019-02-07T09:39:45.665Z,7.73
2019-02-07T09:40:45.657Z,7.75
2019-02-07T09:41:45.649Z,7.83
2019-02-07T09:42:45.661Z,7.88
2019-02-07T09:43:45.652Z,7.85
2019-02-07T09:44:45.621Z,7.94
2019-02-07T09:45:45.661Z,8.00
2019-02-07T09:46:45.592Z,8.08
2019-02-07T09:47:45.590Z,8.23
2019-02-07T09:48:45.575Z,8.23
2019-02-07T09:49:45.586Z,8.24
2019-02-07T09:50:45.566Z,8.20
2019-02-07T09:51:45.538Z,8.20
2019-02-07T09:52:45.528Z,8.28
2019-02-07T09:53:45.519Z,8.31
2019-02-07T09:54:45.539Z,8.30
2019-02-07T09:55:45.499Z,8.19
2019-02-07T09:56:45.496Z,8.27
2019-02-07T09:57:45.496Z,8.23
2019-02-07T09:58:45.461Z,8.06
2019-02-07T09:59:45.456Z,8.05
2019-02-07T10:00:45.467Z,7.94
2019-02-07T10:01:45.433Z,7.91
2019-02-07T10:02:45.422Z,7.82
2019-02-07T10:03:45.519Z,7.80
2019-02-07T10:04:45.396Z,7.79
2019-02-07T10:05:45.389Z,7.83
2019-02-07T10:06:45.401Z,7.88
2019-02-07T10:07:45.370Z,7.95
2019-02-07T10:08:45.359Z,7.94
2019-02-07T10:09:45.348Z,7.98
2019-02-07T10:10:45.394Z,8.00
2019-02-07T10:11:45.357Z,8.05
2019-02-07T10:12:45.310Z,8.05
2019-02-07T10:13:45.301Z,8.03
2019-02-07T10:14:45.292Z,8.05
2019-02-07T10:15:45.283Z,8.06
2019-02-07T10:16:45.334Z,8.09
2019-02-07T10:17:45.254Z,8.08
2019-02-07T10:18:45.246Z,8.08
2019-02-07T10:19:45.236Z,8.18
2019-02-07T10:20:45.230Z,8.15
2019-02-07T10:21:45.230Z,8.10
2019-02-07T10:22:45.215Z,8.18
2019-02-07T10:23:45.214Z,8.08
2019-02-07T10:24:45.179Z,8.10
2019-02-07T10:25:45.169Z,8.12
2019-02-07T10:26:45.179Z,8.09
2019-02-07T10:27:45.151Z,8.09
2019-02-07T10:28:45.138Z,8.08
2019-02-07T10:29:45.151Z,8.10
2019-02-07T10:30:45.116Z,8.16
2019-02-07T10:31:45.133Z,8.09
2019-02-07T10:32:45.092Z,8.18
2019-02-07T10:33:45.082Z,8.31
2019-02-07T10:34:45.074Z,8.36
2019-02-07T10:35:45.087Z,8.44
2019-02-07T10:36:45.065Z,8.42
2019-02-07T10:37:45.056Z,8.58
2019-02-07T10:38:45.033Z,8.70
2019-02-07T10:39:45.019Z,8.76
2019-02-07T10:40:45.010Z,8.88
2019-02-07T10:41:44.992Z,8.91
2019-02-07T10:42:45.005Z,9.04
2019-02-07T10:43:44.969Z,8.87
2019-02-07T10:44:44.966Z,9.04
2019-02-07T10:45:44.951Z,9.08
2019-02-07T10:46:44.972Z,9.08
2019-02-07T10:47:44.931Z,9.18
2019-02-07T10:48:44.935Z,9.46
2019-02-07T10:49:44.913Z,9.58
2019-02-07T10:50:44.893Z,9.56
2019-02-07T10:51:44.888Z,9.55
2019-02-07T10:52:44.880Z,9.29
2019-02-07T10:53:44.910Z,9.31
2019-02-07T10:54:44.850Z,9.46
2019-02-07T10:55:44.836Z,9.46
2019-02-07T10:56:44.827Z,9.47
2019-02-07T10:57:44.820Z,9.55
2019-02-07T10:58:44.811Z,9.41
2019-02-07T10:59:44.824Z,9.50
2019-02-07T11:00:44.787Z,9.58
2019-02-07T11:01:44.771Z,9.48
2019-02-07T11:02:44.760Z,9.51
2019-02-07T11:03:44.750Z,9.61
2019-02-07T11:04:44.740Z,9.65
2019-02-07T11:05:44.753Z,9.72
2019-02-07T11:06:44.726Z,9.61
2019-02-07T11:07:44.705Z,9.76
2019-02-07T11:08:44.701Z,9.79
2019-02-07T11:09:44.690Z,9.87
2019-02-07T11:10:44.711Z,9.80
2019-02-07T11:11:44.672Z,9.82
2019-02-07T11:12:44.657Z,9.97
2019-02-07T11:13:44.642Z,10.31
2019-02-07T11:14:44.657Z,10.46
2019-02-07T11:15:44.619Z,10.59
2019-02-07T11:16:44.628Z,10.34
2019-02-07T11:17:44.619Z,9.97
2019-02-07T11:18:55.062Z,9.92
2019-02-07T11:19:45.581Z,10.05
2019-02-07T11:20:44.573Z,10.01
2019-02-07T11:21:44.557Z,9.99
2019-02-07T11:22:44.560Z,10.15
2019-02-07T11:23:44.556Z,10.48
2019-02-07T11:24:44.524Z,10.59
2019-02-07T11:25:44.514Z,10.72
2019-02-07T11:26:44.499Z,10.49
2019-02-07T11:27:44.506Z,10.19
2019-02-07T11:28:44.483Z,10.28
2019-02-07T11:29:44.490Z,10.33
2019-02-07T11:30:44.469Z,10.13
2019-02-07T11:31:44.451Z,10.26
2019-02-07T11:32:44.438Z,10.46
2019-02-07T11:33:44.426Z,10.60
2019-02-07T11:34:46.047Z,10.63
2019-02-07T11:35:44.401Z,10.67
2019-02-07T11:36:53.769Z,10.38
2019-02-07T11:37:45.383Z,10.38
2019-02-07T11:38:44.374Z,10.30
2019-02-07T11:39:44.360Z,10.46
2019-02-07T11:40:44.366Z,10.87
2019-02-07T11:41:44.341Z,10.78
2019-02-07T11:42:44.334Z,10.71
2019-02-07T11:43:44.344Z,10.63
2019-02-07T11:44:44.307Z,10.64
2019-02-07T11:45:44.336Z,10.72
2019-02-07T11:46:44.298Z,10.53
2019-02-07T11:47:44.286Z,10.75
2019-02-07T11:48:44.260Z,10.76
2019-02-07T11:49:44.257Z,10.51
2019-02-07T11:50:44.245Z,10.31
2019-02-07T11:51:44.231Z,10.28
2019-02-07T11:52:44.236Z,10.28
2019-02-07T11:53:44.208Z,10.30
2019-02-07T11:54:44.192Z,10.26
2019-02-07T11:55:44.205Z,10.31
2019-02-07T11:56:44.176Z,10.09
2019-02-07T11:57:44.192Z,10.07
2019-02-07T11:58:44.147Z,10.07
2019-02-07T11:59:44.139Z,10.01
2019-02-07T12:00:44.130Z,10.15
2019-02-07T12:01:44.121Z,10.05
2019-02-07T12:02:44.111Z,10.15
2019-02-07T12:03:44.139Z,10.23
2019-02-07T12:04:44.114Z,10.13
2019-02-07T12:05:44.073Z,10.04
2019-02-07T12:06:44.062Z,10.02
2019-02-07T12:07:44.069Z,9.79
2019-02-07T12:08:44.060Z,9.77
2019-02-07T12:09:44.039Z,9.84
2019-02-07T12:10:44.024Z,9.82
2019-02-07T12:11:44.031Z,9.97
2019-02-07T12:12:44.002Z,10.04
2019-02-07T12:13:43.990Z,9.98
2019-02-07T12:14:43.980Z,10.10
2019-02-07T12:15:43.978Z,10.04
2019-02-07T12:16:43.956Z,9.97
2019-02-07T12:17:43.967Z,9.94
2019-02-07T12:18:43.931Z,9.97
2019-02-07T12:19:43.920Z,9.87
2019-02-07T12:20:43.911Z,9.79
2019-02-07T12:21:43.903Z,9.68
2019-02-07T12:22:43.898Z,9.86
2019-02-07T12:23:43.901Z,9.79
2019-02-07T12:24:43.883Z,9.82
2019-02-07T12:25:43.884Z,9.83
2019-02-07T12:26:43.843Z,9.86
2019-02-07T12:27:43.839Z,9.83
2019-02-07T12:28:43.849Z,9.86
2019-02-07T12:29:43.813Z,9.83
2019-02-07T12:30:43.801Z,9.95
2019-02-07T12:31:43.791Z,9.99
2019-02-07T12:32:43.789Z,10.07
2019-02-07T12:33:43.771Z,9.95
2019-02-07T12:34:43.782Z,9.94
2019-02-07T12:35:43.753Z,10.04
2019-02-07T12:36:43.739Z,10.05
2019-02-07T12:37:43.732Z,10.09
2019-02-07T12:38:43.712Z,10.12
2019-02-07T12:39:43.727Z,10.04
2019-02-07T12:40:43.695Z,10.15
2019-02-07T12:41:43.692Z,10.30
2019-02-07T12:42:43.681Z,10.34
2019-02-07T12:43:43.659Z,10.16
2019-02-07T12:44:43.654Z,10.19
2019-02-07T12:45:43.675Z,10.23
2019-02-07T12:46:43.682Z,10.20
2019-02-07T12:47:43.624Z,10.05
2019-02-07T12:48:43.610Z,9.99
2019-02-07T12:49:43.597Z,10.09
2019-02-07T12:50:43.583Z,10.13
2019-02-07T12:51:43.598Z,9.94
2019-02-07T12:52:43.564Z,10.02
2019-02-07T12:53:43.554Z,10.05
2019-02-07T12:54:43.547Z,10.13
2019-02-07T12:55:51.937Z,10.07
2019-02-07T12:56:44.539Z,9.99
2019-02-07T12:57:43.511Z,10.02
2019-02-07T12:58:43.515Z,9.98
2019-02-07T12:59:43.492Z,9.97
2019-02-07T13:00:43.478Z,9.99
2019-02-07T13:01:43.494Z,10.07
2019-02-07T13:02:43.478Z,10.17
2019-02-07T13:03:43.459Z,10.04
2019-02-07T13:04:43.432Z,10.10
2019-02-07T13:05:43.425Z,9.94
2019-02-07T13:06:43.427Z,10.02
2019-02-07T13:07:43.431Z,10.09
2019-02-07T13:08:43.391Z,10.12
2019-02-07T13:09:43.406Z,10.20
2019-02-07T13:10:43.366Z,10.15
2019-02-07T13:11:43.370Z,10.19
2019-02-07T13:12:43.356Z,10.22
2019-02-07T13:13:43.382Z,10.23
2019-02-07T13:14:43.340Z,10.26
2019-02-07T13:15:43.342Z,10.46